Time,TemperatureF,DewpointF,PressureIn,WindDirection,WindDirectionDegrees,WindSpeedMPH,WindSpeedGustMPH,Humidity,HourlyPrecipIn,Conditions,Clouds,dailyrainin,SoftwareType,DateUTC
2013-09-10 09:40:00,60.0,49.0,-100.00,SE,136,2.0,4.0,67,-99.99,,,0.00,,2013-09-10 15:40:00,
2013-09-10 10:13:00,60.0,49.0,-100.00,SE,136,2.0,4.0,67,-99.99,,,0.00,,2013-09-10 16:13:00,
2013-09-10 10:23:00,60.0,49.0,-100.00,SE,136,2.0,4.0,67,-99.99,,,0.00,,2013-09-10 16:23:00,
2013-09-10 10:33:00,60.0,49.0,-100.00,SE,136,2.0,4.0,67,-99.99,,,0.00,,2013-09-10 16:33:00,
2013-09-10 10:40:00,64.0,49.0,-100.00,South,178,3.0,6.0,58,0.00,,,0.00,,2013-09-10 16:40:00,
2013-09-10 11:12:00,64.0,49.0,-100.00,South,178,3.0,6.0,58,0.00,,,0.00,,2013-09-10 17:12:00,
2013-09-10 11:23:00,64.0,49.0,-100.00,South,178,3.0,6.0,58,0.00,,,0.00,,2013-09-10 17:23:00,
2013-09-10 11:33:00,64.0,49.0,-100.00,South,178,3.0,6.0,58,0.00,,,0.00,,2013-09-10 17:33:00,
2013-09-10 11:40:00,62.0,49.0,-100.00,SSE,168,3.0,7.0,63,0.00,,,0.00,,2013-09-10 17:40:00,
2013-09-10 12:12:00,62.0,49.0,-100.00,SSE,168,3.0,7.0,63,0.00,,,0.00,,2013-09-10 18:12:00,
2013-09-10 12:22:00,62.0,49.0,-100.00,SSE,168,3.0,7.0,63,0.00,,,0.00,,2013-09-10 18:22:00,
2013-09-10 12:32:00,62.0,49.0,-100.00,SSE,168,3.0,7.0,63,0.00,,,0.00,,2013-09-10 18:32:00,
2013-09-10 12:40:00,64.0,48.0,-100.00,South,172,3.0,7.0,56,0.00,,,0.00,,2013-09-10 18:40:00,
2013-09-10 13:12:00,64.0,48.0,-100.00,South,172,3.0,7.0,56,0.00,,,0.00,,2013-09-10 19:12:00,
2013-09-10 13:22:00,64.0,48.0,-100.00,South,172,3.0,7.0,56,0.00,,,0.00,,2013-09-10 19:22:00,
2013-09-10 13:32:00,64.0,48.0,-100.00,South,172,3.0,7.0,56,0.00,,,0.00,,2013-09-10 19:32:00,
2013-09-10 13:40:00,62.0,47.0,-100.00,South,177,3.0,7.0,59,0.00,,,0.00,,2013-09-10 19:40:00,
2013-09-10 14:12:00,62.0,47.0,-100.00,South,177,3.0,7.0,59,0.00,,,0.00,,2013-09-10 20:12:00,
2013-09-10 14:21:00,62.0,47.0,-100.00,South,177,3.0,7.0,59,0.00,,,0.00,,2013-09-10 20:21:00,
2013-09-10 14:32:00,62.0,47.0,-100.00,South,177,3.0,7.0,59,0.00,,,0.00,,2013-09-10 20:32:00,
2013-09-10 14:40:00,62.0,47.0,-100.00,SSE,164,3.0,7.0,58,0.00,,,0.00,,2013-09-10 20:40:00,
2013-09-10 15:11:00,62.0,47.0,-100.00,SSE,164,3.0,7.0,58,0.00,,,0.00,,2013-09-10 21:11:00,
2013-09-10 15:23:00,62.0,47.0,-100.00,SSE,164,3.0,7.0,58,0.00,,,0.00,,2013-09-10 21:23:00,
2013-09-10 15:34:00,62.0,47.0,-100.00,SSE,164,3.0,7.0,58,0.00,,,0.00,,2013-09-10 21:34:00,
2013-09-10 15:40:00,61.0,47.0,-100.00,SSE,160,3.0,7.0,59,0.00,,,0.00,,2013-09-10 21:40:00,
2013-09-10 16:24:00,61.0,47.0,-100.00,SSE,160,3.0,7.0,59,0.00,,,0.00,,2013-09-10 22:24:00,
2013-09-10 16:33:00,61.0,47.0,-100.00,SSE,160,3.0,7.0,59,0.00,,,0.00,,2013-09-10 22:33:00,
2013-09-10 16:40:00,53.0,51.0,-100.00,South,177,3.0,7.0,92,0.04,,,0.04,,2013-09-10 22:40:00,
2013-09-10 17:23:00,53.0,51.0,-100.00,South,177,3.0,7.0,92,0.04,,,0.04,,2013-09-10 23:23:00,
2013-09-10 17:34:00,53.0,51.0,-100.00,South,177,3.0,7.0,92,0.04,,,0.04,,2013-09-10 23:34:00,
2013-09-10 18:40:00,51.0,49.0,-100.00,ESE,107,1.0,5.0,94,-99.99,,,0.08,,2013-09-11 00:40:00,
2013-09-10 19:11:00,51.0,49.0,-100.00,ESE,107,1.0,5.0,94,-99.99,,,0.08,,2013-09-11 01:11:00,
2013-09-10 23:40:00,51.0,50.0,-100.00,ENE,60,0.0,0.0,96,-99.99,,,0.34,,2013-09-11 05:40:00,